createdAt,value
2023-04-25T00:01:40.163Z,4.63
2023-04-25T00:04:09.474Z,5.07
2023-04-25T00:06:38.456Z,4.75
2023-04-25T00:09:10.056Z,5.10
2023-04-25T00:11:39.979Z,4.82
2023-04-25T00:14:08.218Z,5.40
2023-04-25T00:16:36.875Z,5.35
2023-04-25T00:19:05.378Z,4.93
2023-04-25T00:21:33.826Z,5.35
2023-04-25T00:24:02.572Z,5.57
2023-04-25T00:26:30.931Z,5.68
2023-04-25T00:29:00.842Z,6.53
2023-04-25T00:31:30.129Z,5.97
2023-04-25T00:33:59.483Z,5.72
2023-04-25T00:36:28.598Z,6.07
2023-04-25T00:38:57.046Z,6.15
2023-04-25T00:41:26.176Z,6.68
2023-04-25T00:43:56.055Z,7.28
2023-04-25T00:46:25.829Z,5.72
2023-04-25T00:48:54.626Z,6.45
2023-04-25T00:51:23.715Z,6.05
2023-04-25T00:53:52.967Z,7.30
2023-04-25T00:56:22.574Z,7.55
2023-04-25T00:58:51.732Z,7.57
2023-04-25T01:01:23.161Z,8.13
2023-04-25T01:03:56.885Z,8.02
2023-04-25T01:06:25.606Z,7.93
2023-04-25T01:08:54.284Z,7.80
2023-04-25T01:11:22.647Z,7.50
2023-04-25T01:13:51.865Z,7.60
2023-04-25T01:16:24.950Z,7.47
2023-04-25T01:18:55.023Z,7.70
2023-04-25T01:21:27.365Z,7.07
2023-04-25T01:23:56.754Z,8.02
2023-04-25T01:26:25.299Z,8.43
2023-04-25T01:28:54.533Z,7.80
2023-04-25T01:31:26.360Z,6.93
2023-04-25T01:33:55.283Z,7.55
2023-04-25T01:36:26.175Z,7.35
2023-04-25T01:38:54.636Z,6.75
2023-04-25T01:41:24.370Z,7.85
2023-04-25T01:43:53.100Z,6.85
2023-04-25T01:46:22.044Z,7.10
2023-04-25T01:48:50.395Z,7.25
2023-04-25T01:51:21.792Z,7.45
2023-04-25T01:53:51.850Z,7.65
2023-04-25T01:56:20.428Z,8.32
2023-04-25T01:58:53.466Z,7.63
2023-04-25T02:01:21.877Z,8.98
2023-04-25T02:03:50.740Z,9.10
2023-04-25T02:06:21.112Z,8.10
2023-04-25T02:08:49.491Z,7.68
2023-04-25T02:11:19.088Z,9.02
2023-04-25T02:13:47.556Z,8.82
2023-04-25T02:16:16.045Z,7.97
2023-04-25T02:18:46.021Z,8.60
2023-04-25T02:21:14.554Z,8.07
2023-04-25T02:23:42.864Z,8.05
2023-04-25T02:26:12.312Z,7.97
2023-04-25T02:28:41.969Z,7.35
2023-04-25T02:31:10.310Z,8.25
2023-04-25T02:33:38.608Z,7.97
2023-04-25T02:36:07.724Z,6.95
2023-04-25T02:38:36.510Z,7.35
2023-04-25T02:41:04.933Z,7.07
2023-04-25T02:43:33.151Z,6.60
2023-04-25T02:46:02.820Z,7.20
2023-04-25T02:48:31.529Z,7.28
2023-04-25T02:50:59.797Z,7.80
2023-04-25T02:53:28.734Z,7.32
2023-04-25T02:55:59.361Z,7.70
2023-04-25T02:58:28.228Z,6.70
2023-04-25T03:00:56.806Z,7.45
2023-04-25T03:03:26.758Z,7.70
2023-04-25T03:05:55.383Z,7.60
2023-04-25T03:08:23.731Z,6.40
2023-04-25T03:10:53.144Z,6.63
2023-04-25T03:13:21.980Z,6.95
2023-04-25T03:15:50.350Z,6.90
2023-04-25T03:18:18.967Z,6.28
2023-04-25T03:20:48.737Z,6.97
2023-04-25T03:23:17.163Z,6.18
2023-04-25T03:25:45.579Z,6.43
2023-04-25T03:28:13.883Z,7.03
2023-04-25T03:30:45.120Z,6.80
2023-04-25T03:33:13.508Z,7.10
2023-04-25T03:35:41.755Z,6.93
2023-04-25T03:38:11.554Z,6.88
2023-04-25T03:40:40.043Z,6.10
2023-04-25T03:43:08.375Z,7.05
2023-04-25T03:45:36.750Z,6.32
2023-04-25T03:48:06.007Z,7.07
2023-04-25T03:50:34.358Z,7.50
2023-04-25T03:53:03.157Z,7.03
2023-04-25T03:55:32.837Z,6.93
2023-04-25T03:58:01.173Z,7.80
2023-04-25T04:00:29.587Z,7.32
2023-04-25T04:02:57.921Z,6.93
2023-04-25T04:05:26.849Z,6.70
2023-04-25T04:07:55.252Z,7.55
2023-04-25T04:10:23.889Z,7.18
2023-04-25T04:12:53.741Z,7.78
2023-04-25T04:15:22.095Z,7.85
2023-04-25T04:17:50.890Z,7.78
2023-04-25T04:20:19.275Z,7.40
2023-04-25T04:22:47.497Z,7.55
2023-04-25T04:25:16.502Z,7.63
2023-04-25T04:27:45.652Z,7.53
2023-04-25T04:30:15.992Z,7.75
2023-04-25T04:32:44.720Z,7.45
2023-04-25T04:35:36.922Z,8.25
2023-04-25T04:38:06.956Z,7.80
2023-04-25T04:40:36.350Z,8.02
2023-04-25T04:43:09.951Z,8.10
2023-04-25T04:45:41.558Z,7.88
2023-04-25T04:48:13.089Z,8.57
2023-04-25T04:51:00.355Z,7.55
2023-04-25T04:53:34.352Z,8.10
2023-04-25T04:56:06.359Z,7.38
2023-04-25T04:58:38.728Z,6.82
2023-04-25T05:01:13.386Z,6.60
2023-04-25T05:03:42.433Z,6.88
2023-04-25T05:06:12.690Z,7.80
2023-04-25T05:08:45.577Z,6.65
2023-04-25T05:11:24.641Z,6.47
2023-04-25T05:13:55.152Z,6.55
2023-04-25T05:16:25.270Z,6.43
2023-04-25T05:18:53.570Z,6.45
2023-04-25T05:21:21.780Z,5.88
2023-04-25T05:23:50.757Z,5.55
2023-04-25T05:26:19.250Z,5.10
2023-04-25T05:28:48.337Z,5.45
2023-04-25T05:31:16.622Z,4.43
2023-04-25T05:33:46.210Z,4.78
2023-04-25T05:36:14.454Z,5.40
2023-04-25T05:38:43.194Z,4.55
2023-04-25T05:41:11.814Z,4.65
2023-04-25T05:43:40.095Z,4.40
2023-04-25T05:46:08.452Z,3.67
2023-04-25T05:48:37.234Z,4.13
2023-04-25T05:51:06.995Z,3.88
2023-04-25T05:53:35.367Z,3.47
2023-04-25T05:56:03.963Z,3.15
2023-04-25T05:58:32.307Z,3.55
2023-04-25T06:01:00.717Z,3.70
2023-04-25T06:03:29.141Z,4.47
2023-04-25T06:05:58.025Z,4.00
2023-04-25T06:08:27.759Z,4.13
2023-04-25T06:10:55.871Z,3.63
2023-04-25T06:13:24.125Z,4.38
2023-04-25T06:15:52.296Z,3.83
2023-04-25T06:18:20.802Z,4.38
2023-04-25T06:20:50.838Z,3.38
2023-04-25T06:23:19.188Z,3.33
2023-04-25T06:25:48.928Z,3.35
2023-04-25T06:28:17.865Z,4.60
2023-04-25T06:30:46.492Z,3.65
2023-04-25T06:33:15.191Z,3.50
2023-04-25T06:35:43.994Z,3.50
2023-04-25T06:38:12.194Z,3.67
2023-04-25T06:40:40.697Z,4.18
2023-04-25T06:43:11.095Z,3.88
2023-04-25T06:45:39.399Z,3.20
2023-04-25T06:48:08.122Z,3.47
2023-04-25T06:50:36.500Z,3.40
2023-04-25T06:53:05.487Z,3.45
2023-04-25T06:55:44.695Z,2.95
2023-04-25T06:58:14.535Z,3.08
2023-04-25T07:00:43.134Z,3.33
2023-04-25T07:03:11.779Z,4.30
2023-04-25T07:05:41.066Z,4.00
2023-04-25T07:08:09.410Z,3.13
2023-04-25T07:10:38.236Z,4.57
2023-04-25T07:13:06.612Z,3.28
2023-04-25T07:15:36.654Z,3.75
2023-04-25T07:18:05.254Z,3.97
2023-04-25T07:20:33.961Z,3.95
2023-04-25T07:23:03.119Z,3.25
2023-04-25T07:25:31.730Z,2.88
2023-04-25T07:28:00.609Z,2.65
2023-04-25T07:30:28.953Z,3.58
2023-04-25T07:33:00.628Z,2.30
2023-04-25T07:35:28.957Z,3.05
2023-04-25T07:37:57.532Z,3.50
2023-04-25T07:40:25.791Z,2.58
2023-04-25T07:42:54.453Z,3.50
2023-04-25T07:45:22.879Z,3.60
2023-04-25T07:47:51.489Z,3.38
2023-04-25T07:50:21.165Z,3.22
2023-04-25T07:52:49.481Z,3.30
2023-04-25T07:55:18.416Z,3.30
2023-04-25T07:57:49.322Z,3.40
2023-04-25T08:00:18.268Z,3.50
2023-04-25T08:02:46.690Z,3.33
2023-04-25T08:05:16.683Z,3.10
2023-04-25T08:07:47.797Z,3.10
2023-04-25T08:10:16.197Z,3.03
2023-04-25T08:12:44.464Z,3.05
2023-04-25T08:15:14.772Z,3.55
2023-04-25T08:17:46.512Z,3.00
2023-04-25T08:20:14.997Z,2.65
2023-04-25T08:22:43.131Z,3.35
2023-04-25T08:25:13.184Z,3.72
2023-04-25T08:27:41.463Z,2.92
2023-04-25T08:30:10.589Z,3.08
2023-04-25T08:32:48.065Z,3.67
2023-04-25T08:35:17.605Z,3.15
2023-04-25T08:37:46.645Z,4.13
2023-04-25T08:40:17.860Z,2.90
2023-04-25T08:42:46.378Z,2.83
2023-04-25T08:45:15.093Z,3.15
2023-04-25T08:47:45.938Z,3.78
2023-04-25T08:50:14.354Z,2.33
2023-04-25T08:52:47.097Z,3.03
2023-04-25T08:55:20.986Z,2.90
2023-04-25T08:57:49.814Z,3.38
2023-04-25T09:00:19.108Z,3.03
2023-04-25T09:02:49.121Z,3.42
2023-04-25T09:08:06.868Z,2.42
2023-04-25T09:10:29.115Z,2.80
2023-04-25T09:10:37.451Z,3.05
2023-04-25T09:13:07.182Z,2.72
2023-04-25T09:15:35.701Z,3.80
2023-04-25T09:18:09.063Z,3.20
2023-04-25T09:21:00.050Z,3.05
2023-04-25T09:23:29.461Z,2.55
2023-04-25T09:25:59.171Z,3.28
2023-04-25T09:28:31.127Z,2.72
2023-04-25T09:31:00.268Z,2.83
2023-04-25T09:33:32.911Z,3.00
2023-04-25T09:36:05.947Z,3.20
2023-04-25T09:38:41.996Z,3.03
2023-04-25T09:41:12.921Z,3.03
2023-04-25T09:43:42.061Z,2.63
2023-04-25T09:46:12.293Z,2.40
2023-04-25T09:48:42.193Z,2.63
2023-04-25T09:51:14.793Z,2.72
2023-04-25T09:53:47.252Z,3.15
2023-04-25T09:56:17.115Z,2.55
2023-04-25T09:58:45.783Z,2.42
2023-04-25T10:01:15.316Z,2.60
2023-04-25T10:03:45.721Z,2.25
2023-04-25T10:06:16.714Z,2.95
2023-04-25T10:08:46.638Z,2.70
2023-04-25T10:11:17.768Z,2.97
2023-04-25T10:13:49.136Z,2.90
2023-04-25T10:16:18.445Z,2.60
2023-04-25T10:18:47.034Z,3.03
2023-04-25T10:21:17.236Z,2.20
2023-04-25T10:23:49.272Z,2.53
2023-04-25T10:26:20.135Z,3.10
2023-04-25T10:28:59.141Z,3.17
2023-04-25T10:31:27.781Z,2.38
2023-04-25T10:33:56.604Z,3.17
2023-04-25T10:36:26.554Z,2.45
2023-04-25T10:38:55.448Z,1.75
2023-04-25T10:41:25.105Z,2.00
2023-04-25T10:44:03.241Z,2.60
2023-04-25T10:46:32.298Z,2.20
2023-04-25T10:49:02.515Z,2.13
2023-04-25T10:51:53.916Z,1.95
2023-04-25T10:54:27.067Z,1.88
2023-04-25T10:56:56.833Z,2.03
2023-04-25T10:59:28.024Z,1.50
2023-04-25T11:01:56.821Z,1.70
2023-04-25T11:04:27.341Z,1.88
2023-04-25T11:07:12.881Z,1.67
2023-04-25T11:09:42.477Z,1.80
2023-04-25T11:12:14.159Z,1.50
2023-04-25T11:14:42.519Z,1.73
2023-04-25T11:17:11.937Z,1.60
2023-04-25T11:19:40.503Z,1.80
2023-04-25T11:22:08.914Z,1.70
2023-04-25T11:24:38.509Z,2.00
2023-04-25T11:27:07.935Z,2.70
2023-04-25T11:29:37.897Z,2.22
2023-04-25T11:32:06.892Z,1.92
2023-04-25T11:34:35.817Z,1.70
2023-04-25T11:37:04.751Z,2.08
2023-04-25T11:39:33.360Z,1.65
2023-04-25T11:42:02.871Z,1.83
2023-04-25T11:44:32.526Z,1.90
2023-04-25T11:47:02.355Z,2.35
2023-04-25T11:49:34.189Z,1.75
2023-04-25T11:52:02.665Z,1.50
2023-04-25T11:54:32.059Z,1.63
2023-04-25T11:57:00.682Z,1.75
2023-04-25T11:59:30.021Z,1.92
2023-04-25T12:01:58.840Z,2.17
2023-04-25T12:04:29.654Z,1.80
2023-04-25T12:06:58.234Z,2.00
2023-04-25T12:09:34.936Z,1.70
2023-04-25T12:12:05.319Z,2.10
2023-04-25T12:14:40.422Z,1.52
2023-04-25T12:17:13.413Z,2.20
2023-04-25T12:19:45.506Z,1.67
2023-04-25T12:22:24.684Z,1.48
2023-04-25T12:24:54.904Z,1.92
2023-04-25T12:27:23.286Z,1.65
2023-04-25T12:29:55.178Z,2.00
2023-04-25T12:32:23.573Z,1.52
2023-04-25T12:34:53.225Z,1.58
2023-04-25T12:37:21.986Z,1.63
2023-04-25T12:39:50.472Z,1.83
2023-04-25T12:42:39.873Z,1.42
2023-04-25T12:45:09.503Z,1.80
2023-04-25T12:47:38.329Z,1.83
2023-04-25T12:50:09.842Z,1.80
2023-04-25T12:52:41.134Z,1.70
2023-04-25T12:55:09.844Z,1.98
2023-04-25T12:57:41.044Z,2.25
2023-04-25T13:00:11.710Z,1.50
2023-04-25T13:02:40.609Z,1.73
2023-04-25T13:05:11.196Z,1.77
2023-04-25T13:07:41.256Z,1.40
2023-04-25T13:10:10.468Z,1.70
2023-04-25T13:12:38.748Z,1.63
2023-04-25T13:15:10.467Z,1.75
2023-04-25T13:17:39.561Z,1.73
2023-04-25T13:20:11.242Z,1.70
2023-04-25T13:22:42.981Z,1.30
2023-04-25T13:25:12.012Z,1.33
2023-04-25T13:27:41.661Z,1.40
2023-04-25T13:30:10.642Z,1.42
2023-04-25T13:32:39.536Z,1.08
2023-04-25T13:35:11.325Z,1.13
2023-04-25T13:37:40.556Z,1.30
2023-04-25T13:40:11.738Z,1.63
2023-04-25T13:42:41.179Z,1.45
2023-04-25T13:45:12.403Z,1.30
2023-04-25T13:47:40.788Z,1.40
2023-04-25T13:50:11.855Z,1.75
2023-04-25T13:52:40.177Z,1.20
2023-04-25T13:55:09.672Z,1.30
2023-04-25T13:57:39.388Z,1.73
2023-04-25T14:00:10.980Z,1.30
2023-04-25T14:02:39.744Z,2.03
2023-04-25T14:05:10.502Z,1.40
2023-04-25T14:07:39.274Z,1.45
2023-04-25T14:10:09.328Z,1.60
2023-04-25T14:12:37.642Z,1.67
2023-04-25T14:15:06.780Z,2.10
2023-04-25T14:17:35.472Z,1.40
2023-04-25T14:20:07.034Z,1.52
2023-04-25T14:22:49.354Z,1.27
2023-04-25T14:25:17.916Z,1.63
2023-04-25T14:27:51.293Z,1.60
2023-04-25T14:30:20.089Z,1.20
2023-04-25T14:32:48.465Z,1.30
2023-04-25T14:35:17.217Z,1.20
2023-04-25T14:37:47.009Z,1.27
2023-04-25T14:40:16.510Z,1.50
2023-04-25T14:42:45.487Z,1.35
2023-04-25T14:45:14.146Z,1.45
2023-04-25T14:47:42.608Z,1.70
2023-04-25T14:50:11.829Z,1.63
2023-04-25T14:52:40.084Z,1.77
2023-04-25T14:55:10.680Z,1.60
2023-04-25T14:57:40.322Z,1.90
2023-04-25T15:00:10.654Z,1.55
2023-04-25T15:02:39.432Z,1.42
2023-04-25T15:05:09.595Z,1.73
2023-04-25T15:07:37.950Z,1.60
2023-04-25T15:10:12.031Z,1.23
2023-04-25T15:12:41.860Z,1.40
2023-04-25T15:15:14.198Z,1.83
2023-04-25T15:17:46.567Z,1.98
2023-04-25T15:20:15.905Z,1.52
2023-04-25T15:22:45.930Z,1.23
2023-04-25T15:25:14.430Z,2.00
2023-04-25T15:27:46.072Z,1.40
2023-04-25T15:30:16.587Z,1.90
2023-04-25T15:32:45.540Z,1.73
2023-04-25T15:35:14.316Z,1.40
2023-04-25T15:37:42.920Z,1.30
2023-04-25T15:40:13.752Z,1.58
2023-04-25T15:42:48.078Z,1.77
2023-04-25T15:45:17.998Z,1.80
2023-04-25T15:47:48.518Z,1.35
2023-04-25T15:50:17.174Z,1.55
2023-04-25T15:52:45.778Z,1.50
2023-04-25T15:55:14.393Z,1.48
2023-04-25T15:57:44.182Z,1.30
2023-04-25T16:00:13.637Z,1.38
2023-04-25T16:02:46.419Z,1.38
2023-04-25T16:05:15.604Z,1.67
2023-04-25T16:07:45.607Z,1.50
2023-04-25T16:10:17.211Z,1.38
2023-04-25T16:12:48.489Z,1.70
2023-04-25T16:15:16.985Z,1.40
2023-04-25T16:17:45.581Z,1.17
2023-04-25T16:20:14.884Z,1.35
2023-04-25T16:22:44.860Z,1.27
2023-04-25T16:25:13.479Z,1.20
2023-04-25T16:27:42.348Z,1.30
2023-04-25T16:30:12.953Z,1.40
2023-04-25T16:32:44.732Z,1.20
2023-04-25T16:35:16.997Z,1.17
2023-04-25T16:37:48.408Z,1.30
2023-04-25T16:40:17.124Z,1.10
2023-04-25T16:42:45.403Z,1.13
2023-04-25T16:45:20.295Z,1.00
2023-04-25T16:47:48.630Z,1.10
2023-04-25T16:50:18.103Z,1.10
2023-04-25T16:52:46.375Z,1.00
2023-04-25T16:55:14.629Z,2.67
2023-04-25T16:57:42.925Z,1.10
2023-04-25T17:00:12.973Z,1.63
2023-04-25T17:02:44.531Z,1.40
2023-04-25T17:05:14.549Z,1.73
2023-04-25T17:07:43.279Z,1.70
2023-04-25T17:10:12.450Z,1.50
2023-04-25T17:12:40.976Z,2.03
2023-04-25T17:15:10.639Z,1.60
2023-04-25T17:17:38.971Z,1.23
2023-04-25T17:20:09.944Z,1.40
2023-04-25T17:22:38.893Z,1.42
2023-04-25T17:25:09.114Z,1.70
2023-04-25T17:27:37.852Z,1.70
2023-04-25T17:30:07.256Z,1.30
2023-04-25T17:32:35.670Z,1.42
2023-04-25T17:35:04.479Z,1.35
2023-04-25T17:37:34.236Z,1.52
2023-04-25T17:40:05.019Z,1.55
2023-04-25T17:42:33.830Z,1.10
2023-04-25T17:45:02.561Z,1.50
2023-04-25T17:47:32.133Z,1.27
2023-04-25T17:50:00.529Z,1.52
2023-04-25T17:52:28.922Z,1.20
2023-04-25T17:54:58.792Z,1.38
2023-04-25T17:57:27.319Z,1.50
2023-04-25T17:59:57.782Z,1.92
2023-04-25T18:02:27.021Z,1.38
2023-04-25T18:04:55.877Z,1.45
2023-04-25T18:07:24.194Z,1.15
2023-04-25T18:09:52.681Z,1.25
2023-04-25T18:12:22.323Z,1.48
2023-04-25T18:14:50.682Z,1.52
2023-04-25T18:17:19.054Z,1.15
2023-04-25T18:19:48.799Z,0.98
2023-04-25T18:22:17.146Z,1.15
2023-04-25T18:24:46.406Z,1.40
2023-04-25T18:27:14.707Z,1.10
2023-04-25T18:29:45.515Z,1.10
2023-04-25T18:32:17.188Z,1.20
2023-04-25T18:34:46.942Z,1.38
2023-04-25T18:37:15.591Z,1.88
2023-04-25T18:39:44.232Z,1.38
2023-04-25T18:42:12.797Z,1.60
2023-04-25T18:44:42.108Z,1.70
2023-04-25T18:47:38.572Z,1.60
2023-04-25T18:50:11.259Z,1.38
2023-04-25T18:57:03.789Z,1.65
2023-04-25T18:59:32.123Z,1.58
2023-04-25T19:02:01.860Z,1.30
2023-04-25T19:04:33.423Z,1.50
2023-04-25T19:07:02.563Z,1.52
2023-04-25T19:09:31.142Z,1.65
2023-04-25T19:11:59.910Z,1.83
2023-04-25T19:14:29.013Z,1.85
2023-04-25T19:16:59.223Z,1.88
2023-04-25T19:19:28.478Z,2.97
2023-04-25T19:21:59.286Z,2.15
2023-04-25T19:24:27.748Z,2.00
2023-04-25T19:26:56.492Z,1.60
2023-04-25T19:29:25.174Z,1.92
2023-04-25T19:31:54.442Z,1.60
2023-04-25T19:34:26.009Z,1.85
2023-04-25T19:36:58.133Z,1.65
2023-04-25T19:39:27.872Z,1.80
2023-04-25T19:41:57.682Z,2.25
2023-04-25T19:44:29.329Z,2.28
2023-04-25T19:46:59.730Z,1.95
2023-04-25T19:49:28.377Z,2.30
2023-04-25T19:51:56.619Z,2.15
2023-04-25T19:54:25.109Z,1.73
2023-04-25T19:56:54.784Z,1.92
2023-04-25T19:59:23.254Z,1.80
2023-04-25T20:01:51.726Z,1.73
2023-04-25T20:04:20.191Z,1.92
2023-04-25T20:06:52.449Z,1.45
2023-04-25T20:09:22.616Z,2.20
2023-04-25T20:11:53.477Z,1.63
2023-04-25T20:14:27.542Z,1.40
2023-04-25T20:17:00.299Z,1.50
2023-04-25T20:27:58.764Z,1.52
2023-04-25T20:30:47.739Z,1.55
2023-04-25T20:34:23.682Z,2.13
2023-04-25T20:45:07.581Z,1.80
2023-04-25T20:47:47.013Z,2.22
2023-04-25T20:54:20.254Z,1.67
2023-04-25T20:57:28.994Z,1.90
2023-04-25T21:04:12.817Z,1.77
2023-04-25T21:07:48.827Z,1.60
2023-04-25T21:10:59.246Z,2.00
2023-04-25T21:13:36.395Z,1.65
2023-04-25T21:19:29.768Z,1.85
2023-04-25T21:22:06.165Z,1.40
2023-04-25T21:24:40.416Z,1.73
2023-04-25T21:27:32.481Z,1.88
2023-04-25T21:32:56.727Z,1.75
2023-04-25T21:35:26.804Z,1.75
2023-04-25T21:37:54.960Z,1.40
2023-04-25T21:40:26.547Z,1.67
2023-04-25T21:42:54.878Z,1.83
2023-04-25T21:45:23.299Z,1.70
2023-04-25T21:47:51.749Z,1.85
2023-04-25T21:50:21.140Z,2.00
2023-04-25T21:52:51.086Z,1.80
2023-04-25T21:55:19.811Z,2.00
2023-04-25T21:57:48.661Z,2.30
2023-04-25T22:00:25.046Z,2.00
2023-04-25T22:02:54.115Z,2.15
2023-04-25T22:05:22.999Z,1.83
2023-04-25T22:07:53.888Z,2.45
2023-04-25T22:10:23.262Z,2.20
2023-04-25T22:12:51.667Z,2.10
2023-04-25T22:15:23.900Z,2.08
2023-04-25T22:17:55.225Z,2.45
2023-04-25T22:20:28.087Z,2.60
2023-04-25T22:22:57.864Z,2.35
2023-04-25T22:25:26.478Z,2.35
2023-04-25T22:27:55.729Z,2.33
2023-04-25T22:30:24.577Z,2.78
2023-04-25T22:32:52.900Z,2.15
2023-04-25T22:35:21.241Z,2.25
2023-04-25T22:37:55.796Z,3.38
2023-04-25T22:40:28.317Z,2.10
2023-04-25T22:42:58.562Z,2.78
2023-04-25T22:45:28.984Z,2.70
2023-04-25T22:47:59.510Z,2.70
2023-04-25T22:50:32.740Z,2.70
2023-04-25T22:53:06.246Z,3.15
2023-04-25T22:55:40.348Z,2.50
2023-04-25T22:58:11.005Z,2.75
2023-04-25T23:00:39.399Z,2.33
2023-04-25T23:03:07.909Z,2.60
2023-04-25T23:05:39.482Z,2.83
2023-04-25T23:08:07.674Z,2.47
2023-04-25T23:10:37.498Z,2.38
2023-04-25T23:13:05.720Z,3.10
2023-04-25T23:15:34.901Z,2.70
2023-04-25T23:18:03.652Z,2.72
2023-04-25T23:20:33.785Z,2.25
2023-04-25T23:23:02.255Z,4.78
2023-04-25T23:25:31.184Z,3.92
2023-04-25T23:28:01.011Z,2.72
2023-04-25T23:30:29.191Z,2.83
2023-04-25T23:32:57.355Z,2.80
2023-04-25T23:35:25.523Z,3.10
2023-04-25T23:37:54.075Z,2.83
2023-04-25T23:40:22.863Z,2.80
2023-04-25T23:42:51.037Z,3.10
2023-04-25T23:45:21.066Z,3.42
2023-04-25T23:47:49.450Z,2.75
2023-04-25T23:50:18.449Z,3.03
2023-04-25T23:52:47.209Z,2.38
2023-04-25T23:55:15.363Z,2.95
2023-04-25T23:57:44.565Z,3.00
